Time;durP1;ratioP1;P1;durP2;ratioP2;P2;SDS_P1;SDS_P2;PMS_P1;PMS_P2;Temp;Humidity;BMP_temperature;BMP_pressure;BME280_temperature;BME280_humidity;BME280_pressure;Samples;Min_cycle;Max_cycle;Signal;HPM_P1;HPM_P2
2021/07/02 00:00:42;;;;;;;0.50;0.50;;;15.90;99.90;;;;;;5041442;28;20288;-69
2021/07/02 00:03:08;;;;;;;0.50;0.50;;;15.80;99.90;;;;;;5044386;28;20280;-70
2021/07/02 00:05:34;;;;;;;0.30;0.30;;;15.80;99.90;;;;;;5043572;28;21339;-69
2021/07/02 00:08:00;;;;;;;0.40;0.40;;;15.70;99.90;;;;;;5042163;28;20233;-70
2021/07/02 00:10:25;;;;;;;0.30;0.30;;;15.60;99.90;;;;;;5041814;28;20198;-69
2021/07/02 00:12:51;;;;;;;0.40;0.40;;;15.50;99.90;;;;;;5041750;28;20189;-71
2021/07/02 00:15:17;;;;;;;1.85;1.25;;;15.40;99.90;;;;;;5038307;28;20193;-69
2021/07/02 00:17:42;;;;;;;0.30;0.30;;;15.40;99.90;;;;;;5043733;28;20244;-70
2021/07/02 00:20:09;;;;;;;0.40;0.40;;;15.30;99.90;;;;;;5041834;28;20204;-70
2021/07/02 00:22:35;;;;;;;0.40;0.40;;;15.30;99.90;;;;;;5044054;28;20991;-70
2021/07/02 00:25:03;;;;;;;0.30;0.30;;;15.40;99.90;;;;;;5041397;28;20285;-70
2021/07/02 00:27:29;;;;;;;0.32;0.32;;;15.40;99.90;;;;;;5044140;28;20875;-69
2021/07/02 00:29:55;;;;;;;0.40;0.40;;;15.30;99.90;;;;;;5042278;28;20248;-69
2021/07/02 00:32:21;;;;;;;0.32;0.32;;;15.30;99.90;;;;;;5044733;28;20229;-70
2021/07/02 00:34:46;;;;;;;0.40;0.40;;;15.30;99.90;;;;;;5043001;28;20198;-70
2021/07/02 00:37:12;;;;;;;0.35;0.35;;;15.30;99.90;;;;;;5043267;28;20213;-69
2021/07/02 00:39:37;;;;;;;0.40;0.40;;;15.30;99.90;;;;;;5043201;28;20200;-69
2021/07/02 00:42:04;;;;;;;0.40;0.40;;;15.30;99.90;;;;;;5042181;28;20201;-69
2021/07/02 00:44:44;;;;;;;12.30;0.63;;;15.30;99.90;;;;;;5042556;28;20212;-69
2021/07/02 00:47:11;;;;;;;0.30;0.30;;;15.20;99.90;;;;;;5043784;28;20695;-69
2021/07/02 00:49:37;;;;;;;0.40;0.40;;;15.10;99.90;;;;;;5042672;28;20197;-69
2021/07/02 00:52:05;;;;;;;0.30;0.30;;;15.10;99.90;;;;;;5043501;28;20257;-69
2021/07/02 00:54:36;;;;;;;0.30;0.30;;;15.10;99.90;;;;;;5041493;28;20209;-71
2021/07/02 00:57:03;;;;;;;0.82;0.68;;;15.00;99.90;;;;;;5042062;28;20369;-70
2021/07/02 00:59:29;;;;;;;0.60;0.60;;;15.00;99.90;;;;;;5042639;28;20202;-71
2021/07/02 01:01:56;;;;;;;0.40;0.40;;;15.00;99.90;;;;;;5045360;28;20248;-72
2021/07/02 01:04:23;;;;;;;0.40;0.40;;;15.10;99.90;;;;;;5035307;28;20229;-78
2021/07/02 01:06:51;;;;;;;0.40;0.40;;;15.10;99.90;;;;;;5042206;28;20291;-72
2021/07/02 01:09:18;;;;;;;0.40;0.40;;;15.10;99.90;;;;;;5041576;28;20185;-78
2021/07/02 01:11:43;;;;;;;0.40;0.40;;;15.10;99.90;;;;;;5042089;28;20189;-76
2021/07/02 01:14:09;;;;;;;2.20;1.38;;;15.10;99.90;;;;;;5042638;28;20209;-75
2021/07/02 01:16:38;;;;;;;0.45;0.45;;;15.10;99.90;;;;;;5040357;28;20221;-76
2021/07/02 01:19:04;;;;;;;0.40;0.40;;;15.10;99.90;;;;;;5040580;28;20675;-76
2021/07/02 01:21:29;;;;;;;0.40;0.40;;;15.00;99.90;;;;;;5042163;28;20201;-75
2021/07/02 01:23:55;;;;;;;0.40;0.40;;;14.90;99.90;;;;;;5041600;28;20584;-75
2021/07/02 01:26:22;;;;;;;0.60;0.45;;;14.90;99.90;;;;;;5040848;28;20197;-75
2021/07/02 01:28:48;;;;;;;0.40;0.40;;;14.80;99.90;;;;;;5040992;28;20198;-78
2021/07/02 01:31:14;;;;;;;0.40;0.40;;;14.70;99.90;;;;;;5041432;28;20208;-75
2021/07/02 01:33:39;;;;;;;0.50;0.50;;;14.70;99.90;;;;;;5039740;28;20190;-75
2021/07/02 01:36:15;;;;;;;0.40;0.40;;;14.60;99.90;;;;;;5034755;28;20313;-75
2021/07/02 01:38:40;;;;;;;0.50;0.50;;;14.60;99.90;;;;;;5038615;28;20882;-77
2021/07/02 01:41:06;;;;;;;0.43;0.43;;;14.60;99.90;;;;;;5039955;28;20205;-75
2021/07/02 01:43:32;;;;;;;0.50;0.50;;;14.60;99.90;;;;;;5038794;28;20305;-78
2021/07/02 01:45:58;;;;;;;0.50;0.50;;;14.60;99.90;;;;;;5035726;28;21350;-76
2021/07/02 01:48:24;;;;;;;0.45;0.45;;;14.60;99.90;;;;;;5038846;28;20189;-75
2021/07/02 01:50:50;;;;;;;0.52;0.52;;;14.70;99.90;;;;;;5052225;28;20308;-76
2021/07/02 01:53:15;;;;;;;0.40;0.40;;;14.70;99.90;;;;;;5036011;28;20197;-75
2021/07/02 01:55:41;;;;;;;0.40;0.40;;;14.70;99.90;;;;;;5039269;28;20197;-75
2021/07/02 01:58:07;;;;;;;0.40;0.40;;;14.70;99.90;;;;;;5038796;28;20978;-78
2021/07/02 02:00:33;;;;;;;0.40;0.40;;;14.70;99.90;;;;;;5034162;28;20198;-75
2021/07/02 02:02:58;;;;;;;0.40;0.40;;;14.80;99.90;;;;;;5033741;28;20196;-77
2021/07/02 02:05:24;;;;;;;0.40;0.40;;;14.90;99.90;;;;;;5036824;28;20244;-73
2021/07/02 02:07:50;;;;;;;0.50;0.50;;;14.90;99.90;;;;;;5039042;28;20205;-76
2021/07/02 02:10:16;;;;;;;0.50;0.50;;;14.90;99.90;;;;;;5038111;28;20193;-74
2021/07/02 02:12:42;;;;;;;0.63;0.63;;;14.90;99.90;;;;;;5038209;28;20194;-77
2021/07/02 02:15:08;;;;;;;0.50;0.50;;;15.00;99.90;;;;;;5039381;28;20213;-76
2021/07/02 02:17:34;;;;;;;0.40;0.40;;;15.00;99.90;;;;;;5039327;28;20247;-77
2021/07/02 02:20:03;;;;;;;0.38;0.38;;;15.00;99.90;;;;;;5037007;28;20204;-75
2021/07/02 02:22:29;;;;;;;0.40;0.40;;;15.00;99.90;;;;;;5037856;28;20702;-75
2021/07/02 02:24:55;;;;;;;0.40;0.40;;;15.00;99.90;;;;;;5037295;28;20199;-76
2021/07/02 02:27:20;;;;;;;0.88;0.73;;;15.00;99.90;;;;;;5039460;28;20263;-76
2021/07/02 02:29:46;;;;;;;0.40;0.40;;;15.00;99.90;;;;;;5041063;28;20186;-75
2021/07/02 02:32:12;;;;;;;0.40;0.40;;;15.00;99.90;;;;;;5038707;28;20677;-76
2021/07/02 02:34:38;;;;;;;0.40;0.40;;;15.00;99.90;;;;;;5038687;28;20193;-76
2021/07/02 02:37:04;;;;;;;0.68;0.60;;;15.00;99.90;;;;;;5038589;28;20190;-73
2021/07/02 02:39:30;;;;;;;0.40;0.40;;;15.00;99.90;;;;;;5037919;28;20216;-76
2021/07/02 02:41:56;;;;;;;0.40;0.40;;;15.00;99.90;;;;;;5031543;28;20537;-74
2021/07/02 02:44:21;;;;;;;0.40;0.40;;;15.00;99.90;;;;;;5038210;28;20281;-76
2021/07/02 02:46:47;;;;;;;0.40;0.40;;;14.90;99.90;;;;;;5035829;28;20198;-76
2021/07/02 02:49:13;;;;;;;0.57;0.57;;;14.90;99.90;;;;;;5039478;28;20198;-76
2021/07/02 02:51:38;;;;;;;0.65;0.65;;;14.90;99.90;;;;;;5038298;28;20243;-75
2021/07/02 02:54:04;;;;;;;0.40;0.40;;;14.90;99.90;;;;;;5036501;28;20643;-75
2021/07/02 02:56:30;;;;;;;0.38;0.38;;;14.90;99.90;;;;;;5037669;28;20308;-75
2021/07/02 02:58:55;;;;;;;0.40;0.40;;;14.90;99.90;;;;;;5038744;28;20202;-75
2021/07/02 03:01:21;;;;;;;0.88;0.65;;;14.90;99.90;;;;;;5038815;28;20201;-76
2021/07/02 03:03:47;;;;;;;0.55;0.55;;;15.00;99.90;;;;;;5039087;28;20255;-76
2021/07/02 03:06:14;;;;;;;0.40;0.40;;;15.00;99.90;;;;;;5037294;28;20788;-76
2021/07/02 03:08:40;;;;;;;0.40;0.40;;;15.00;99.90;;;;;;5041390;28;20201;-75
2021/07/02 03:11:05;;;;;;;0.75;0.60;;;15.00;99.90;;;;;;5041737;28;20636;-78
2021/07/02 03:13:31;;;;;;;0.40;0.40;;;15.00;99.90;;;;;;5056404;28;20217;-74
2021/07/02 03:15:57;;;;;;;0.40;0.40;;;15.00;99.90;;;;;;5042749;28;20173;-77
2021/07/02 03:18:23;;;;;;;0.30;0.30;;;15.00;99.90;;;;;;5044084;28;20189;-75
2021/07/02 03:20:49;;;;;;;0.32;0.32;;;15.00;99.90;;;;;;5042370;28;20193;-76
2021/07/02 03:23:14;;;;;;;0.50;0.50;;;15.00;99.90;;;;;;5041463;28;20189;-73
2021/07/02 03:25:40;;;;;;;0.32;0.32;;;15.10;99.90;;;;;;5041389;28;20315;-74
2021/07/02 03:28:06;;;;;;;0.65;0.50;;;15.10;99.90;;;;;;5044064;28;20213;-77
2021/07/02 03:30:31;;;;;;;0.30;0.30;;;15.10;99.90;;;;;;5041415;28;20316;-71
2021/07/02 03:32:57;;;;;;;0.68;0.50;;;15.20;99.90;;;;;;5043816;28;21832;-76
2021/07/02 03:35:23;;;;;;;0.40;0.40;;;15.20;99.90;;;;;;5037619;28;20289;-73
2021/07/02 03:37:49;;;;;;;0.50;0.50;;;15.20;99.90;;;;;;5044690;28;20202;-78
2021/07/02 03:40:15;;;;;;;2.63;1.33;;;15.20;99.90;;;;;;5042968;28;20270;-76
2021/07/02 03:42:40;;;;;;;0.60;0.60;;;15.10;99.90;;;;;;5058006;28;20301;-77
2021/07/02 03:45:07;;;;;;;0.30;0.30;;;15.10;99.90;;;;;;5040919;28;20193;-77
2021/07/02 03:47:32;;;;;;;0.88;0.60;;;15.00;99.90;;;;;;5040797;28;20217;-77
2021/07/02 03:49:59;;;;;;;0.32;0.32;;;15.00;99.90;;;;;;5038971;28;20578;-74
2021/07/02 03:52:25;;;;;;;0.43;0.43;;;15.00;99.90;;;;;;5041132;28;20579;-78
2021/07/02 03:54:52;;;;;;;0.40;0.40;;;15.00;99.90;;;;;;5039922;28;20278;-78
2021/07/02 03:57:20;;;;;;;0.38;0.38;;;15.00;99.90;;;;;;5039701;28;20313;-76
2021/07/02 03:59:51;;;;;;;0.45;0.45;;;15.00;99.90;;;;;;5039494;28;20205;-76
2021/07/02 04:02:19;;;;;;;0.40;0.40;;;15.00;99.90;;;;;;5040907;28;20217;-78
2021/07/02 04:04:44;;;;;;;0.50;0.50;;;15.00;99.90;;;;;;5039697;28;20280;-75
2021/07/02 04:07:12;;;;;;;0.50;0.50;;;15.00;99.90;;;;;;5039037;28;20782;-77
2021/07/02 04:09:39;;;;;;;0.60;0.60;;;15.00;99.90;;;;;;5040545;28;20635;-75
2021/07/02 04:12:06;;;;;;;0.30;0.30;;;15.10;99.90;;;;;;5037919;28;20209;-74
2021/07/02 04:14:32;;;;;;;0.40;0.40;;;15.10;99.90;;;;;;5038307;28;20251;-72
2021/07/02 04:16:58;;;;;;;0.40;0.40;;;15.10;99.90;;;;;;5041492;28;20189;-78
2021/07/02 04:19:24;;;;;;;0.50;0.50;;;15.10;99.90;;;;;;5040969;28;20859;-76
2021/07/02 04:21:51;;;;;;;0.77;0.77;;;15.20;99.90;;;;;;5041659;28;20201;-75
2021/07/02 04:24:18;;;;;;;0.40;0.40;;;15.30;99.90;;;;;;5042605;28;20205;-77
2021/07/02 04:26:44;;;;;;;0.35;0.35;;;15.40;99.90;;;;;;5036786;28;20198;-77
2021/07/02 04:29:10;;;;;;;0.30;0.30;;;15.60;99.90;;;;;;5039563;28;20789;-77
2021/07/02 04:31:36;;;;;;;0.40;0.40;;;15.80;99.90;;;;;;5039198;28;20197;-71
2021/07/02 04:34:02;;;;;;;0.40;0.40;;;15.90;99.90;;;;;;5035877;28;20315;-72
2021/07/02 04:36:27;;;;;;;0.68;0.63;;;16.10;99.90;;;;;;5040329;28;20227;-71
2021/07/02 04:38:55;;;;;;;0.40;0.40;;;16.40;99.90;;;;;;5041468;28;20824;-71
2021/07/02 04:41:21;;;;;;;0.30;0.30;;;16.60;99.90;;;;;;5039970;28;20519;-72
2021/07/02 04:43:47;;;;;;;0.38;0.38;;;16.80;99.90;;;;;;5040975;28;20291;-72
2021/07/02 04:46:13;;;;;;;0.30;0.30;;;17.10;99.90;;;;;;5039952;28;20227;-72
2021/07/02 04:48:39;;;;;;;0.30;0.30;;;17.30;99.90;;;;;;5042693;28;20298;-72
2021/07/02 04:51:05;;;;;;;0.50;0.50;;;17.20;99.90;;;;;;5043675;28;20190;-73
2021/07/02 04:53:31;;;;;;;0.30;0.30;;;17.30;99.90;;;;;;5038028;28;20194;-72
2021/07/02 04:55:56;;;;;;;0.65;0.65;;;17.20;99.90;;;;;;5035887;28;20201;-72
2021/07/02 04:58:22;;;;;;;0.40;0.40;;;17.20;99.90;;;;;;5043737;28;20787;-72
2021/07/02 05:00:48;;;;;;;0.40;0.40;;;17.30;99.90;;;;;;5041059;28;20260;-72
2021/07/02 05:03:14;;;;;;;0.30;0.30;;;17.40;99.90;;;;;;5039959;28;20275;-71
2021/07/02 05:05:41;;;;;;;0.63;0.50;;;17.40;99.90;;;;;;5038477;28;20312;-72
2021/07/02 05:08:08;;;;;;;0.30;0.30;;;17.60;99.90;;;;;;5041689;28;20277;-73
2021/07/02 05:10:35;;;;;;;0.30;0.30;;;17.70;99.90;;;;;;5039425;28;20231;-73
2021/07/02 05:13:02;;;;;;;0.30;0.30;;;17.70;99.90;;;;;;5043274;28;20206;-74
2021/07/02 05:15:28;;;;;;;0.35;0.35;;;17.80;99.90;;;;;;5041014;28;20704;-73
2021/07/02 05:17:53;;;;;;;0.82;0.70;;;18.10;99.90;;;;;;5039327;28;20197;-73
2021/07/02 05:20:19;;;;;;;0.22;0.22;;;18.30;99.90;;;;;;5039032;28;20216;-72
2021/07/02 05:22:45;;;;;;;3.63;1.33;;;18.40;99.90;;;;;;5038742;28;20193;-75
2021/07/02 05:25:11;;;;;;;0.30;0.30;;;18.20;99.90;;;;;;5048887;28;20593;-72
2021/07/02 05:27:37;;;;;;;0.30;0.30;;;18.20;99.90;;;;;;5034774;28;20217;-76
2021/07/02 05:30:04;;;;;;;0.30;0.30;;;18.40;99.90;;;;;;5039812;28;20274;-73
2021/07/02 05:32:30;;;;;;;0.30;0.30;;;18.50;99.90;;;;;;5043912;28;20354;-74
2021/07/02 05:34:56;;;;;;;0.52;0.35;;;18.70;99.90;;;;;;5044683;28;20250;-73
2021/07/02 05:37:22;;;;;;;0.55;0.55;;;18.70;99.90;;;;;;5042861;28;20236;-73
2021/07/02 05:39:47;;;;;;;0.30;0.30;;;18.60;99.90;;;;;;5046652;28;20232;-74
2021/07/02 05:42:13;;;;;;;0.35;0.35;;;18.60;99.30;;;;;;5043782;28;21030;-74
2021/07/02 05:44:39;;;;;;;0.50;0.50;;;18.60;99.90;;;;;;5047010;28;20201;-74
2021/07/02 05:47:04;;;;;;;0.20;0.20;;;18.70;99.90;;;;;;5037958;28;20231;-73
2021/07/02 05:49:31;;;;;;;0.40;0.40;;;18.80;99.70;;;;;;5040517;28;20228;-76
2021/07/02 05:51:57;;;;;;;0.30;0.30;;;19.10;99.90;;;;;;5044219;28;20219;-74
2021/07/02 05:54:22;;;;;;;0.20;0.20;;;19.50;99.50;;;;;;5039802;28;20691;-79
2021/07/02 05:56:50;;;;;;;0.30;0.30;;;19.80;97.40;;;;;;5036084;28;20215;-77
2021/07/02 05:59:16;;;;;;;0.20;0.20;;;19.80;97.90;;;;;;5032934;28;20198;-75
2021/07/02 06:01:42;;;;;;;0.25;0.25;;;19.50;97.50;;;;;;5035617;28;20201;-72
2021/07/02 06:04:07;;;;;;;0.30;0.30;;;19.30;99.10;;;;;;5035339;28;20311;-74
2021/07/02 06:06:33;;;;;;;0.20;0.20;;;19.60;99.00;;;;;;5038366;28;20871;-74
2021/07/02 06:08:59;;;;;;;0.20;0.20;;;19.60;97.80;;;;;;5042604;28;20197;-75
2021/07/02 06:11:25;;;;;;;0.20;0.20;;;19.70;98.50;;;;;;5042065;28;20995;-72
2021/07/02 06:13:51;;;;;;;0.30;0.30;;;20.00;98.10;;;;;;5036802;28;20263;-76
2021/07/02 06:16:17;;;;;;;0.30;0.30;;;20.30;96.70;;;;;;5042630;28;20193;-76
2021/07/02 06:18:43;;;;;;;0.55;0.38;;;20.50;97.20;;;;;;5057008;28;20683;-72
2021/07/02 06:21:08;;;;;;;0.20;0.20;;;20.60;96.10;;;;;;5038134;28;20197;-73
2021/07/02 06:23:35;;;;;;;0.50;0.50;;;20.50;97.00;;;;;;5036558;28;20522;-73
2021/07/02 06:26:02;;;;;;;0.20;0.20;;;20.80;96.70;;;;;;5042628;28;20241;-77
2021/07/02 06:28:28;;;;;;;0.20;0.20;;;21.00;96.60;;;;;;5037832;28;20511;-74
2021/07/02 06:30:55;;;;;;;0.20;0.20;;;21.20;95.30;;;;;;5041686;28;20252;-75
2021/07/02 06:33:20;;;;;;;0.57;0.57;;;21.20;96.20;;;;;;5039603;28;20212;-73
2021/07/02 06:35:46;;;;;;;0.20;0.20;;;21.20;95.10;;;;;;5038127;28;20205;-72
2021/07/02 06:38:12;;;;;;;0.20;0.20;;;21.10;95.40;;;;;;5043511;28;20196;-73
2021/07/02 06:40:38;;;;;;;0.35;0.35;;;21.10;96.60;;;;;;5045830;28;20213;-72
2021/07/02 06:43:03;;;;;;;0.22;0.22;;;21.10;94.50;;;;;;5044692;28;20204;-72
2021/07/02 06:45:30;;;;;;;0.20;0.20;;;21.00;95.90;;;;;;5048098;28;20202;-75
2021/07/02 06:48:03;;;;;;;0.30;0.30;;;21.10;96.10;;;;;;5041485;28;20268;-73
2021/07/02 06:50:34;;;;;;;0.17;0.17;;;21.50;94.10;;;;;;5043772;28;20202;-73
2021/07/02 06:53:02;;;;;;;0.40;0.40;;;21.70;94.90;;;;;;5042639;28;20284;-73
2021/07/02 06:55:28;;;;;;;0.30;0.30;;;22.10;95.00;;;;;;5040392;28;20263;-74
2021/07/02 06:57:54;;;;;;;0.40;0.40;;;22.50;93.30;;;;;;5037475;28;20269;-73
2021/07/02 07:00:21;;;;;;;0.20;0.20;;;22.80;93.70;;;;;;5037557;28;20211;-73
2021/07/02 07:02:47;;;;;;;0.20;0.20;;;22.70;93.50;;;;;;5054027;28;20233;-73
2021/07/02 07:05:14;;;;;;;0.20;0.20;;;22.70;92.90;;;;;;5036719;28;20235;-74
2021/07/02 07:07:40;;;;;;;0.20;0.20;;;22.70;93.80;;;;;;5028896;28;20248;-72
2021/07/02 07:10:06;;;;;;;0.20;0.20;;;22.80;93.40;;;;;;5034319;28;20203;-74
2021/07/02 07:12:32;;;;;;;0.30;0.30;;;22.80;93.00;;;;;;5022489;28;20204;-72
2021/07/02 07:14:58;;;;;;;0.70;0.30;;;22.60;94.20;;;;;;5035221;28;20198;-73
2021/07/02 07:17:24;;;;;;;0.40;0.40;;;22.70;93.40;;;;;;5031672;28;20672;-73
2021/07/02 07:19:50;;;;;;;0.20;0.20;;;22.90;93.10;;;;;;5035558;28;20354;-73
2021/07/02 07:22:16;;;;;;;0.10;0.10;;;23.00;92.70;;;;;;5041106;28;20198;-74
2021/07/02 07:24:43;;;;;;;0.30;0.30;;;23.10;92.50;;;;;;5044285;28;20758;-75
2021/07/02 07:27:09;;;;;;;0.10;0.10;;;23.30;93.80;;;;;;5044994;28;20243;-74
2021/07/02 07:29:34;;;;;;;0.20;0.20;;;23.50;92.20;;;;;;5042422;28;20210;-75
2021/07/02 07:32:01;;;;;;;0.20;0.20;;;23.40;92.00;;;;;;5057897;28;20190;-75
2021/07/02 07:36:55;;;;;;;0.20;0.20;;;23.50;92.30;;;;;;5041529;28;20206;-73
2021/07/02 07:39:21;;;;;;;0.20;0.20;;;23.60;92.00;;;;;;5040471;28;20284;-74
2021/07/02 07:41:47;;;;;;;0.30;0.30;;;23.80;90.90;;;;;;5039915;28;20233;-74
2021/07/02 07:44:15;;;;;;;0.20;0.20;;;24.00;91.60;;;;;;5037836;28;20231;-74
2021/07/02 07:46:41;;;;;;;0.30;0.30;;;24.00;90.20;;;;;;5039967;28;20221;-77
2021/07/02 07:49:07;;;;;;;0.10;0.10;;;23.90;91.80;;;;;;5033111;28;20201;-75
2021/07/02 07:51:36;;;;;;;0.22;0.22;;;24.20;92.20;;;;;;5056787;28;20194;-74
2021/07/02 07:54:02;;;;;;;0.20;0.20;;;24.60;91.70;;;;;;5035050;28;20291;-76
2021/07/02 07:56:30;;;;;;;0.20;0.20;;;24.80;92.00;;;;;;5041309;28;20258;-74
2021/07/02 07:58:56;;;;;;;0.20;0.20;;;24.90;89.10;;;;;;5046476;28;20198;-74
2021/07/02 08:01:22;;;;;;;0.80;0.22;;;24.50;90.10;;;;;;5041043;28;20193;-72
2021/07/02 08:03:47;;;;;;;0.80;0.25;;;24.20;90.50;;;;;;5045113;28;20204;-73
2021/07/02 08:06:13;;;;;;;0.20;0.20;;;24.20;90.10;;;;;;5041305;28;20229;-74
2021/07/02 08:08:39;;;;;;;0.20;0.20;;;24.20;90.00;;;;;;5042572;28;20205;-73
2021/07/02 08:11:04;;;;;;;0.20;0.20;;;24.50;91.70;;;;;;5054318;28;20235;-72
2021/07/02 08:13:30;;;;;;;0.30;0.30;;;24.80;90.30;;;;;;5045013;28;20210;-73
2021/07/02 08:15:57;;;;;;;0.25;0.25;;;24.80;89.10;;;;;;5040899;28;20186;-73
2021/07/02 08:18:23;;;;;;;3.22;1.05;;;24.70;89.40;;;;;;5042401;28;20267;-71
2021/07/02 08:20:49;;;;;;;0.30;0.20;;;24.80;91.60;;;;;;5042970;28;20207;-74
2021/07/02 08:23:15;;;;;;;0.10;0.10;;;24.70;91.30;;;;;;5042098;28;20250;-71
2021/07/02 08:25:40;;;;;;;2.10;0.22;;;24.60;90.00;;;;;;5040190;28;20682;-70
2021/07/02 08:30:51;;;;;;;0.20;0.20;;;24.30;90.90;;;;;;5035956;28;20220;-72
2021/07/02 08:33:19;;;;;;;0.32;0.22;;;24.30;91.40;;;;;;5037189;28;20284;-75
2021/07/02 08:35:49;;;;;;;0.57;0.52;;;24.50;91.20;;;;;;5040347;28;20209;-72
2021/07/02 08:38:16;;;;;;;0.22;0.20;;;24.60;90.50;;;;;;5042820;28;20199;-76
2021/07/02 08:40:43;;;;;;;1.40;0.50;;;25.00;90.30;;;;;;5038543;28;20301;-72
2021/07/02 08:43:09;;;;;;;0.28;0.28;;;25.50;88.70;;;;;;5040393;28;20208;-73
2021/07/02 08:45:35;;;;;;;0.63;0.30;;;26.00;84.60;;;;;;5042598;28;20312;-73
2021/07/02 08:48:06;;;;;;;0.20;0.20;;;26.30;83.50;;;;;;5034862;28;20293;-72
2021/07/02 08:50:33;;;;;;;0.13;0.13;;;26.70;86.20;;;;;;5034666;28;20220;-72
2021/07/02 08:52:59;;;;;;;0.20;0.20;;;26.90;82.50;;;;;;5035932;28;20208;-74
2021/07/02 08:55:25;;;;;;;0.10;0.10;;;26.90;84.50;;;;;;5011789;28;20193;-73
2021/07/02 08:57:51;;;;;;;0.10;0.10;;;27.10;80.30;;;;;;5019343;28;20198;-73
2021/07/02 09:00:18;;;;;;;0.13;0.13;;;26.90;79.50;;;;;;5008530;28;20209;-73
2021/07/02 09:02:44;;;;;;;0.43;0.43;;;26.70;84.20;;;;;;5036895;28;20297;-74
2021/07/02 09:05:39;;;;;;;0.10;0.10;;;26.40;80.60;;;;;;5011448;28;20249;-73
2021/07/02 09:08:15;;;;;;;0.10;0.10;;;26.10;88.00;;;;;;5041665;28;20205;-74
2021/07/02 09:10:41;;;;;;;0.20;0.20;;;26.10;83.50;;;;;;5034991;28;20222;-74
2021/07/02 09:13:06;;;;;;;0.15;0.15;;;26.50;84.70;;;;;;5023332;28;20261;-73
2021/07/02 09:15:40;;;;;;;0.10;0.10;;;27.00;84.10;;;;;;5034832;28;20194;-74
2021/07/02 09:18:06;;;;;;;2.92;0.40;;;27.00;81.60;;;;;;5040887;28;20243;-73
2021/07/02 09:20:36;;;;;;;0.10;0.10;;;26.80;79.60;;;;;;5037671;28;20208;-72
2021/07/02 09:23:04;;;;;;;0.10;0.10;;;26.50;85.10;;;;;;5040797;28;20223;-73
2021/07/02 09:25:47;;;;;;;2.65;0.73;;;26.50;82.40;;;;;;5041740;28;20292;-74
2021/07/02 09:28:17;;;;;;;0.03;0.03;;;26.40;85.20;;;;;;5038119;28;20210;-75
2021/07/02 09:30:52;;;;;;;0.20;0.20;;;26.50;85.20;;;;;;5035286;28;20194;-74
2021/07/02 09:33:25;;;;;;;0.20;0.20;;;26.60;82.80;;;;;;5039973;28;20274;-75
2021/07/02 09:36:00;;;;;;;0.20;0.20;;;26.80;85.10;;;;;;5040530;28;20289;-73
2021/07/02 09:38:40;;;;;;;0.10;0.10;;;27.30;85.40;;;;;;5043351;28;20193;-75
2021/07/02 09:41:08;;;;;;;0.10;0.10;;;27.60;84.70;;;;;;5036757;28;20193;-74
2021/07/02 09:43:34;;;;;;;0.35;0.10;;;27.70;81.30;;;;;;5037668;28;20193;-74
2021/07/02 09:46:05;;;;;;;0.50;0.20;;;27.70;82.10;;;;;;5034109;28;20189;-76
2021/07/02 09:48:33;;;;;;;0.10;0.10;;;28.10;86.90;;;;;;5039679;28;20204;-76
2021/07/02 09:51:00;;;;;;;0.10;0.10;;;28.20;79.50;;;;;;5033289;28;20852;-75
2021/07/02 09:53:32;;;;;;;0.20;0.20;;;28.00;80.00;;;;;;5038243;28;20194;-73
2021/07/02 09:56:00;;;;;;;0.30;0.30;;;27.90;82.20;;;;;;5039911;28;20284;-75
2021/07/02 09:58:28;;;;;;;0.45;0.38;;;27.90;82.00;;;;;;5041370;28;20192;-73
2021/07/02 10:01:00;;;;;;;0.10;0.10;;;27.90;82.70;;;;;;5034170;28;20231;-73
2021/07/02 10:03:26;;;;;;;0.47;0.47;;;28.00;81.80;;;;;;5042627;28;20546;-73
2021/07/02 10:05:53;;;;;;;0.20;0.20;;;27.60;80.90;;;;;;5035731;28;20228;-73
2021/07/02 10:08:21;;;;;;;0.17;0.17;;;27.70;84.80;;;;;;5037446;28;20208;-74
2021/07/02 10:10:49;;;;;;;0.70;0.28;;;27.80;84.20;;;;;;5036082;28;20694;-74
2021/07/02 10:13:15;;;;;;;0.40;0.20;;;27.70;82.40;;;;;;5042444;28;20758;-74
2021/07/02 10:15:43;;;;;;;0.10;0.10;;;27.80;81.30;;;;;;5040003;28;20295;-74
2021/07/02 10:18:13;;;;;;;1.77;0.68;;;28.00;79.90;;;;;;5032536;28;20197;-76
2021/07/02 10:20:41;;;;;;;0.28;0.28;;;28.00;83.20;;;;;;5046918;28;20295;-79
2021/07/02 10:23:07;;;;;;;0.10;0.10;;;28.60;81.40;;;;;;5047353;28;20204;-77
2021/07/02 10:25:33;;;;;;;0.50;0.43;;;28.60;83.50;;;;;;5044515;28;20216;-76
2021/07/02 10:27:59;;;;;;;0.63;0.22;;;28.50;83.30;;;;;;5057807;28;20209;-74
2021/07/02 10:30:25;;;;;;;0.40;0.35;;;28.50;82.10;;;;;;5039457;28;21062;-77
2021/07/02 10:32:59;;;;;;;0.15;0.15;;;28.70;79.30;;;;;;5039004;28;20662;-75
2021/07/02 10:35:28;;;;;;;0.28;0.25;;;28.90;78.10;;;;;;5038145;28;20197;-75
2021/07/02 10:37:59;;;;;;;0.85;0.40;;;29.00;76.60;;;;;;5037851;28;20667;-75
2021/07/02 10:40:37;;;;;;;0.77;0.47;;;29.10;83.00;;;;;;5036007;28;20961;-76
2021/07/02 10:43:26;;;;;;;0.30;0.25;;;29.50;80.90;;;;;;5036282;28;20254;-75
2021/07/02 10:46:18;;;;;;;0.28;0.28;;;29.90;79.00;;;;;;5040218;28;20262;-75
2021/07/02 10:48:52;;;;;;;0.10;0.10;;;30.10;77.70;;;;;;5038526;28;20385;-76
2021/07/02 10:51:31;;;;;;;0.15;0.15;;;30.00;75.80;;;;;;5034052;28;20654;-77
2021/07/02 10:54:18;;;;;;;0.10;0.10;;;30.40;78.00;;;;;;5035610;28;20207;-77
2021/07/02 10:56:56;;;;;;;0.30;0.30;;;30.60;75.50;;;;;;5036158;28;20203;-76
2021/07/02 10:59:42;;;;;;;1.65;0.75;;;30.50;76.60;;;;;;5033733;28;20200;-76
2021/07/02 11:04:38;;;;;;;0.30;0.20;;;30.70;76.00;;;;;;5040565;28;20237;-76
2021/07/02 11:07:15;;;;;;;0.22;0.22;;;30.40;78.10;;;;;;5043404;28;20675;-78
2021/07/02 11:09:54;;;;;;;0.25;0.25;;;30.10;75.50;;;;;;5042212;28;20205;-76
2021/07/02 11:12:20;;;;;;;0.40;0.40;;;30.00;75.90;;;;;;5031285;28;20197;-76
2021/07/02 11:14:51;;;;;;;0.40;0.40;;;29.80;75.60;;;;;;5042840;28;20208;-76
2021/07/02 11:17:23;;;;;;;0.10;0.10;;;29.60;73.10;;;;;;5036821;28;20288;-76
2021/07/02 11:20:09;;;;;;;0.20;0.20;;;29.40;78.70;;;;;;5032685;28;20198;-77
2021/07/02 11:22:40;;;;;;;0.20;0.20;;;29.40;78.80;;;;;;5038548;28;20205;-74
2021/07/02 11:25:08;;;;;;;0.30;0.30;;;29.60;80.80;;;;;;5039247;28;20185;-77
2021/07/02 11:27:42;;;;;;;0.30;0.30;;;29.30;77.40;;;;;;5039256;28;20585;-73
2021/07/02 11:30:38;;;;;;;0.20;0.20;;;30.00;76.90;;;;;;5042901;28;20329;-75
2021/07/02 11:33:09;;;;;;;0.10;0.10;;;30.10;77.10;;;;;;5044117;28;20220;-76
2021/07/02 11:35:37;;;;;;;0.43;0.43;;;30.30;75.50;;;;;;5044268;28;20189;-75
2021/07/02 11:38:14;;;;;;;0.13;0.13;;;30.00;77.00;;;;;;5047886;28;20231;-77
2021/07/02 11:40:47;;;;;;;0.40;0.40;;;30.10;78.70;;;;;;5037242;28;20207;-73
2021/07/02 11:43:13;;;;;;;0.13;0.13;;;30.20;77.10;;;;;;5047554;28;20196;-77
2021/07/02 11:45:43;;;;;;;0.25;0.25;;;30.40;76.70;;;;;;5045981;28;20201;-77
2021/07/02 11:48:39;;;;;;;0.43;0.28;;;30.70;77.60;;;;;;5037586;28;20209;-76
2021/07/02 11:51:11;;;;;;;3.92;1.05;;;31.00;74.90;;;;;;5038471;28;20204;-77
2021/07/02 11:53:38;;;;;;;0.28;0.20;;;31.40;74.90;;;;;;5039917;28;20201;-76
2021/07/02 11:56:07;;;;;;;0.10;0.10;;;31.30;69.00;;;;;;5040042;28;20220;-77
2021/07/02 11:58:55;;;;;;;0.00;0.00;;;31.20;73.90;;;;;;5043622;28;20205;-78
2021/07/02 12:01:38;;;;;;;0.20;0.20;;;31.30;72.70;;;;;;5039901;28;20198;-76
2021/07/02 12:04:19;;;;;;;1.23;0.40;;;31.30;73.40;;;;;;5042996;28;20193;-77
2021/07/02 12:06:46;;;;;;;0.45;0.30;;;30.90;72.40;;;;;;5042287;28;20663;-76
2021/07/02 12:09:18;;;;;;;0.73;0.20;;;30.70;74.10;;;;;;5042964;28;20798;-76
2021/07/02 12:11:55;;;;;;;0.28;0.20;;;30.60;75.10;;;;;;5038009;28;20198;-77
2021/07/02 12:14:25;;;;;;;0.40;0.40;;;30.90;74.90;;;;;;5040545;28;20203;-77
2021/07/02 12:16:52;;;;;;;0.35;0.35;;;31.30;75.90;;;;;;5036936;28;20285;-77
2021/07/02 12:19:20;;;;;;;0.75;0.20;;;31.50;75.30;;;;;;5046020;28;20193;-78
2021/07/02 12:21:58;;;;;;;0.10;0.10;;;31.80;72.10;;;;;;5038757;28;20189;-78
2021/07/02 12:24:28;;;;;;;0.73;0.43;;;31.60;73.80;;;;;;5045872;28;20197;-76
2021/07/02 12:26:59;;;;;;;2.78;0.38;;;31.40;70.50;;;;;;5040621;28;20604;-78
2021/07/02 12:29:26;;;;;;;0.75;0.60;;;31.20;69.80;;;;;;5041342;28;20200;-76
2021/07/02 12:31:54;;;;;;;0.13;0.13;;;31.40;73.20;;;;;;5036176;28;20199;-76
2021/07/02 12:34:25;;;;;;;0.20;0.20;;;31.60;70.50;;;;;;5035520;28;20194;-79
2021/07/02 12:37:04;;;;;;;0.28;0.28;;;31.70;69.50;;;;;;5034569;28;20196;-74
2021/07/02 12:39:30;;;;;;;0.22;0.22;;;30.90;70.60;;;;;;5042370;28;20205;-77
2021/07/02 12:41:59;;;;;;;0.50;0.40;;;31.00;71.80;;;;;;5042239;28;20204;-74
2021/07/02 12:44:27;;;;;;;0.10;0.10;;;31.00;73.50;;;;;;5050685;28;20217;-75
2021/07/02 12:46:53;;;;;;;2.28;0.75;;;31.00;68.60;;;;;;5042800;28;20217;-78
2021/07/02 12:49:30;;;;;;;0.10;0.10;;;30.50;68.40;;;;;;5038632;28;20190;-76
2021/07/02 12:57:16;;;;;;;0.10;0.10;;;31.10;69.90;;;;;;5050949;28;20177;-75
2021/07/02 12:59:58;;;;;;;2.13;0.88;;;31.20;68.90;;;;;;5047815;28;20208;-77
2021/07/02 13:02:39;;;;;;;0.30;0.30;;;31.20;72.30;;;;;;5043317;28;20205;-77
2021/07/02 13:05:09;;;;;;;0.43;0.13;;;31.10;65.30;;;;;;5041762;28;20307;-76